Time;durP1;ratioP1;P1;durP2;ratioP2;P2;SDS_P1;SDS_P2;PMS_P1;PMS_P2;Temp;Humidity;BMP_temperature;BMP_pressure;BME280_temperature;BME280_humidity;BME280_pressure;Samples;Min_cycle;Max_cycle;Signal;HPM_P1;HPM_P2
2022/11/06 00:00:21;;;;;;;10.10;5.25;;;10.20;99.90;;;;;;5018003;28;20030;-80
2022/11/06 00:02:47;;;;;;;10.55;5.45;;;10.20;99.90;;;;;;5017813;28;20022;-81
2022/11/06 00:07:57;;;;;;;15.57;5.55;;;10.10;99.90;;;;;;5017955;28;20045;-81
2022/11/06 00:10:23;;;;;;;10.23;5.40;;;10.20;99.90;;;;;;5017688;28;20497;-80
2022/11/06 00:12:49;;;;;;;10.75;5.05;;;10.20;99.90;;;;;;5017335;28;20096;-81
2022/11/06 00:15:14;;;;;;;11.65;5.90;;;10.20;99.90;;;;;;5017650;28;20018;-81
2022/11/06 00:17:40;;;;;;;8.35;5.13;;;10.20;99.90;;;;;;4998138;28;20022;-81
2022/11/06 00:20:07;;;;;;;11.43;5.72;;;10.30;99.90;;;;;;4998034;28;20022;-81
2022/11/06 00:22:36;;;;;;;10.27;5.60;;;10.30;99.90;;;;;;4998642;28;20042;-81
2022/11/06 00:25:03;;;;;;;10.80;5.47;;;10.30;99.90;;;;;;5013205;28;20539;-80
2022/11/06 00:27:29;;;;;;;13.75;5.93;;;10.30;99.90;;;;;;4997732;28;20433;-80
2022/11/06 00:29:54;;;;;;;6.43;5.38;;;10.40;99.90;;;;;;4997796;28;20564;-81
2022/11/06 00:32:20;;;;;;;10.00;5.60;;;10.40;99.90;;;;;;4997608;28;20081;-81
2022/11/06 00:34:47;;;;;;;8.93;5.05;;;10.30;99.90;;;;;;4997633;28;20030;-81
2022/11/06 00:37:13;;;;;;;8.20;4.43;;;10.40;99.90;;;;;;4997541;28;20461;-81
2022/11/06 00:39:39;;;;;;;11.93;5.28;;;10.30;99.90;;;;;;4997613;28;20027;-81
2022/11/06 00:42:04;;;;;;;9.68;5.50;;;10.30;99.90;;;;;;4997704;28;20084;-81
2022/11/06 00:44:30;;;;;;;13.55;5.55;;;10.40;99.90;;;;;;4997885;28;20058;-80
2022/11/06 00:46:55;;;;;;;9.57;5.95;;;10.30;99.90;;;;;;4997817;28;20029;-80
2022/11/06 00:49:21;;;;;;;9.50;6.15;;;10.40;99.90;;;;;;4998302;28;20413;-80
2022/11/06 00:51:47;;;;;;;8.63;6.18;;;10.30;99.90;;;;;;5005584;28;20026;-80
2022/11/06 00:54:13;;;;;;;8.05;5.90;;;10.30;99.90;;;;;;5016755;28;20018;-80
2022/11/06 00:56:39;;;;;;;9.68;6.10;;;10.30;99.90;;;;;;5011040;28;20030;-80
2022/11/06 00:59:07;;;;;;;9.80;6.05;;;10.50;99.90;;;;;;5017128;28;20096;-80
2022/11/06 01:01:38;;;;;;;15.43;6.88;;;10.30;99.90;;;;;;5017066;28;20025;-80
2022/11/06 01:04:07;;;;;;;9.70;5.80;;;10.30;99.90;;;;;;5017257;28;20062;-80
2022/11/06 01:06:36;;;;;;;9.63;5.60;;;10.30;99.90;;;;;;5016312;28;20025;-80
2022/11/06 01:09:03;;;;;;;9.80;6.15;;;10.40;99.90;;;;;;5017341;28;20493;-80
2022/11/06 01:11:35;;;;;;;13.13;6.32;;;10.40;99.90;;;;;;5016714;28;20549;-80
2022/11/06 01:14:04;;;;;;;10.88;7.10;;;10.40;99.90;;;;;;5017737;28;20042;-80
2022/11/06 01:16:30;;;;;;;8.68;5.85;;;10.50;99.90;;;;;;5007801;28;20029;-80
2022/11/06 01:18:56;;;;;;;14.00;5.88;;;10.40;99.90;;;;;;4997671;28;20105;-80
2022/11/06 01:21:25;;;;;;;12.70;5.95;;;10.30;99.90;;;;;;5003800;28;20069;-80
2022/11/06 01:23:53;;;;;;;13.77;5.95;;;10.40;99.90;;;;;;4997192;28;20030;-80
2022/11/06 01:26:19;;;;;;;13.40;6.32;;;10.40;99.90;;;;;;4997124;28;20651;-80
2022/11/06 01:28:46;;;;;;;14.52;6.50;;;10.40;99.90;;;;;;4997229;28;20076;-80
2022/11/06 01:31:16;;;;;;;10.10;5.53;;;10.40;99.90;;;;;;4997253;28;20516;-80
2022/11/06 01:33:42;;;;;;;13.93;6.50;;;10.60;99.90;;;;;;4997004;28;20077;-80
2022/11/06 01:36:10;;;;;;;12.60;5.85;;;10.40;99.90;;;;;;5001369;28;20022;-80
2022/11/06 01:38:38;;;;;;;11.85;6.72;;;10.40;99.90;;;;;;5016173;28;20026;-80
2022/11/06 01:41:04;;;;;;;12.90;6.78;;;10.40;99.90;;;;;;5016241;28;20586;-80
2022/11/06 01:43:55;;;;;;;10.82;6.15;;;10.40;99.90;;;;;;5016465;28;20061;-80
2022/11/06 01:46:30;;;;;;;10.73;6.05;;;10.40;99.90;;;;;;5006534;28;20461;-80
2022/11/06 01:48:58;;;;;;;12.77;7.03;;;10.40;99.90;;;;;;5001493;28;20805;-80
2022/11/06 01:52:07;;;;;;;10.95;6.85;;;10.40;99.90;;;;;;5005623;28;20032;-80
2022/11/06 01:54:35;;;;;;;7.68;6.30;;;10.40;99.90;;;;;;4975378;28;20034;-80
2022/11/06 01:57:02;;;;;;;11.18;7.35;;;10.50;99.90;;;;;;4975265;28;20113;-80
2022/11/06 01:59:31;;;;;;;12.00;6.50;;;10.40;99.90;;;;;;4985153;28;20084;-80
2022/11/06 02:02:05;;;;;;;14.57;7.40;;;10.50;99.90;;;;;;4999908;28;20034;-80
2022/11/06 02:04:43;;;;;;;9.77;7.20;;;10.50;99.90;;;;;;5016610;28;20495;-80
2022/11/06 02:07:09;;;;;;;15.93;7.38;;;10.40;99.90;;;;;;5016164;28;20022;-80
2022/11/06 02:09:35;;;;;;;11.20;8.25;;;10.50;99.90;;;;;;5016205;28;20025;-80
2022/11/06 02:12:06;;;;;;;11.85;7.78;;;10.50;99.90;;;;;;5015409;28;20378;-80
2022/11/06 02:14:42;;;;;;;17.08;8.25;;;10.50;99.90;;;;;;5015795;28;20033;-80
2022/11/06 02:17:25;;;;;;;14.77;8.00;;;10.50;99.90;;;;;;5016196;28;20025;-80
2022/11/06 02:20:21;;;;;;;13.55;8.32;;;10.50;99.90;;;;;;5014994;28;20026;-80
2022/11/06 02:23:14;;;;;;;13.60;8.32;;;10.50;99.90;;;;;;5015752;28;20033;-80
2022/11/06 02:25:53;;;;;;;16.02;8.10;;;10.50;99.90;;;;;;5015715;28;20097;-80
2022/11/06 02:28:33;;;;;;;11.63;8.00;;;10.50;99.90;;;;;;5014487;28;20030;-80
2022/11/06 02:31:02;;;;;;;15.57;8.30;;;10.50;99.90;;;;;;5004148;28;20064;-80
2022/11/06 02:33:35;;;;;;;12.35;7.72;;;10.50;99.90;;;;;;5015227;28;20726;-80
2022/11/06 02:36:12;;;;;;;10.95;7.63;;;10.50;99.90;;;;;;5005571;28;20113;-81
2022/11/06 02:38:44;;;;;;;12.68;8.15;;;10.60;99.90;;;;;;5000219;28;20037;-81
2022/11/06 02:41:17;;;;;;;16.10;7.90;;;10.50;99.90;;;;;;5015183;28;20025;-80
2022/11/06 02:43:47;;;;;;;13.13;8.45;;;10.60;99.90;;;;;;5015188;28;20365;-80
2022/11/06 02:46:21;;;;;;;14.15;8.25;;;10.60;99.90;;;;;;5015037;28;20030;-80
2022/11/06 02:48:54;;;;;;;10.77;7.35;;;10.60;99.90;;;;;;5015108;28;20030;-80
2022/11/06 02:51:24;;;;;;;10.77;7.18;;;10.60;99.90;;;;;;5015265;28;20049;-80
2022/11/06 02:53:51;;;;;;;12.75;8.02;;;10.60;99.90;;;;;;5015658;28;20034;-80
2022/11/06 02:56:22;;;;;;;13.07;8.02;;;10.60;99.90;;;;;;5015224;28;20033;-80
2022/11/06 02:59:01;;;;;;;10.25;8.18;;;10.60;99.90;;;;;;5015214;28;20359;-80
2022/11/06 03:01:39;;;;;;;12.63;9.18;;;10.60;99.90;;;;;;5014839;28;20491;-80
2022/11/06 03:04:13;;;;;;;12.25;8.23;;;10.60;99.90;;;;;;5014883;28;20056;-80
2022/11/06 03:06:49;;;;;;;11.77;8.20;;;10.60;99.90;;;;;;4995223;28;20022;-80
2022/11/06 03:09:21;;;;;;;11.88;8.15;;;10.60;99.90;;;;;;4995247;28;20106;-80
2022/11/06 03:11:56;;;;;;;12.07;7.75;;;10.60;99.90;;;;;;4994881;28;20050;-80
2022/11/06 03:14:53;;;;;;;11.13;7.78;;;10.80;99.90;;;;;;4999229;28;20029;-80
2022/11/06 03:17:36;;;;;;;11.27;7.00;;;10.60;99.90;;;;;;5014698;28;20101;-80
2022/11/06 03:20:21;;;;;;;10.82;7.82;;;10.60;99.90;;;;;;5014689;28;20026;-80
2022/11/06 03:23:08;;;;;;;8.77;6.93;;;10.60;99.90;;;;;;5014389;28;20472;-80
2022/11/06 03:25:42;;;;;;;11.77;7.50;;;10.60;99.90;;;;;;4998135;28;20030;-80
2022/11/06 03:28:18;;;;;;;12.43;7.55;;;10.70;99.90;;;;;;4994695;28;20026;-80
2022/11/06 03:30:54;;;;;;;11.50;7.72;;;10.60;99.90;;;;;;4994766;28;20019;-80
2022/11/06 03:33:31;;;;;;;11.48;7.72;;;10.70;99.90;;;;;;5008030;28;20026;-80
2022/11/06 03:36:16;;;;;;;12.27;7.55;;;10.70;99.90;;;;;;5014369;28;20084;-80
2022/11/06 03:39:01;;;;;;;10.75;7.28;;;10.70;99.90;;;;;;5014384;28;20026;-80
2022/11/06 03:41:37;;;;;;;10.82;7.75;;;10.70;99.90;;;;;;5014413;28;20030;-80
2022/11/06 03:44:05;;;;;;;11.45;7.95;;;10.70;99.90;;;;;;5014534;28;20014;-80
2022/11/06 03:46:36;;;;;;;10.73;7.75;;;10.70;99.90;;;;;;5014238;28;20473;-80
2022/11/06 03:49:06;;;;;;;10.57;8.10;;;10.60;99.90;;;;;;5014229;28;20022;-80
2022/11/06 03:51:46;;;;;;;12.65;8.30;;;10.70;99.90;;;;;;5014303;28;20030;-80
2022/11/06 03:54:34;;;;;;;;;;;10.70;99.90;;;;;;5014746;28;20113;-80
2022/11/06 03:57:13;;;;;;;14.05;8.23;;;10.70;99.90;;;;;;5013953;28;19913;-80
2022/11/06 03:59:47;;;;;;;13.75;8.43;;;10.70;99.90;;;;;;5011137;28;20033;-80
2022/11/06 04:02:14;;;;;;;9.40;7.88;;;10.70;99.90;;;;;;4994159;28;20022;-80
2022/11/06 04:04:48;;;;;;;10.35;7.85;;;10.80;99.90;;;;;;4994206;28;20045;-80
2022/11/06 04:07:18;;;;;;;13.40;8.25;;;10.70;99.90;;;;;;5005559;28;20030;-80
2022/11/06 04:15:21;;;;;;;11.80;8.57;;;10.60;99.90;;;;;;5002056;28;20041;-80
2022/11/06 04:17:47;;;;;;;13.70;8.43;;;10.70;99.90;;;;;;4994044;28;20038;-80
2022/11/06 04:21:20;;;;;;;12.73;7.72;;;10.70;99.90;;;;;;4994152;28;20027;-80
2022/11/06 04:23:12;;;;;;;;;;;10.70;99.90;;;;;;4994301;28;20034;-80
2022/11/06 04:28:47;;;;;;;12.15;8.48;;;10.70;99.90;;;;;;4994282;28;20048;-80
2022/11/06 04:31:32;;;;;;;13.35;7.65;;;10.90;99.90;;;;;;4994243;28;20145;-80
2022/11/06 04:34:06;;;;;;;11.05;7.90;;;10.70;99.90;;;;;;4994228;28;20393;-80
2022/11/06 04:36:52;;;;;;;10.82;7.68;;;10.70;99.90;;;;;;4993897;28;20097;-80
2022/11/06 04:39:27;;;;;;;11.13;8.35;;;10.70;99.90;;;;;;4993972;28;20026;-80
2022/11/06 04:42:10;;;;;;;10.63;8.32;;;10.70;99.90;;;;;;5007942;28;20442;-80
2022/11/06 04:44:43;;;;;;;9.38;7.97;;;10.70;99.90;;;;;;5017454;28;20080;-80
2022/11/06 04:47:12;;;;;;;14.52;8.70;;;10.80;99.90;;;;;;5017148;28;20017;-80
2022/11/06 04:49:40;;;;;;;12.25;8.77;;;10.70;99.90;;;;;;5017009;28;20109;-80
2022/11/06 04:52:10;;;;;;;13.57;8.85;;;10.80;99.90;;;;;;5016810;28;20033;-80
2022/11/06 04:54:35;;;;;;;12.43;8.82;;;10.70;99.90;;;;;;5016863;28;20022;-80
2022/11/06 04:57:02;;;;;;;11.02;8.10;;;10.70;99.90;;;;;;5015540;28;20018;-80
2022/11/06 04:59:29;;;;;;;12.25;7.93;;;10.70;99.90;;;;;;5016638;28;20026;-80
2022/11/06 05:01:54;;;;;;;11.57;7.80;;;10.70;99.90;;;;;;5016566;28;20044;-80
2022/11/06 05:04:20;;;;;;;11.57;7.35;;;10.80;99.90;;;;;;5016695;28;20026;-80
2022/11/06 05:06:46;;;;;;;11.05;7.88;;;10.70;99.90;;;;;;5016266;28;20034;-80
2022/11/06 05:09:11;;;;;;;10.60;7.82;;;10.80;99.90;;;;;;5016759;28;20022;-80
2022/11/06 05:11:40;;;;;;;13.82;8.02;;;10.70;99.90;;;;;;5016256;28;20077;-80
2022/11/06 05:14:05;;;;;;;14.82;8.75;;;10.80;99.90;;;;;;5016635;28;20038;-80
2022/11/06 05:16:31;;;;;;;13.43;7.22;;;10.70;99.90;;;;;;5016304;28;20076;-80
2022/11/06 05:18:56;;;;;;;9.65;7.32;;;10.70;99.90;;;;;;5016406;28;20018;-80
2022/11/06 05:24:07;;;;;;;11.73;7.57;;;10.90;99.90;;;;;;5002253;28;20380;-80
2022/11/06 05:26:33;;;;;;;10.27;7.70;;;10.80;99.90;;;;;;5015002;28;20648;-80
2022/11/06 05:28:58;;;;;;;10.38;6.68;;;10.70;99.90;;;;;;5016132;28;20029;-80
2022/11/06 05:31:25;;;;;;;12.30;7.03;;;10.70;99.90;;;;;;5012617;28;20033;-80
2022/11/06 05:33:50;;;;;;;12.52;7.35;;;10.70;99.90;;;;;;4996303;28;20469;-80
2022/11/06 05:36:16;;;;;;;14.57;7.45;;;10.70;99.90;;;;;;4996465;28;20041;-80
2022/11/06 05:38:42;;;;;;;13.35;7.65;;;10.70;99.90;;;;;;4996462;28;20029;-81
2022/11/06 05:41:07;;;;;;;11.93;7.55;;;10.60;99.90;;;;;;4996170;28;20023;-81
2022/11/06 05:43:33;;;;;;;13.90;8.18;;;10.70;99.90;;;;;;4996305;28;20023;-80
2022/11/06 05:45:59;;;;;;;16.48;8.40;;;10.70;99.90;;;;;;4996088;28;20029;-80
2022/11/06 05:48:26;;;;;;;15.50;8.35;;;10.70;99.90;;;;;;4996506;28;20022;-80
2022/11/06 05:50:52;;;;;;;9.77;8.00;;;10.70;99.90;;;;;;4996199;28;20024;-80
2022/11/06 05:53:17;;;;;;;11.73;8.02;;;10.80;99.90;;;;;;4995894;28;20022;-80
2022/11/06 05:55:46;;;;;;;11.93;7.90;;;10.70;99.90;;;;;;4996045;28;20022;-80
2022/11/06 05:58:13;;;;;;;11.50;7.75;;;10.70;99.90;;;;;;4995923;28;20033;-80
2022/11/06 06:00:38;;;;;;;14.43;8.25;;;10.50;99.90;;;;;;4996055;28;20473;-81
2022/11/06 06:03:04;;;;;;;11.88;7.57;;;10.60;99.90;;;;;;4995917;28;20077;-81
2022/11/06 06:05:29;;;;;;;11.00;7.68;;;10.60;99.90;;;;;;4995857;28;20026;-81
2022/11/06 06:07:55;;;;;;;10.93;7.97;;;10.70;99.90;;;;;;5013099;28;20022;-81
2022/11/06 06:10:21;;;;;;;11.25;7.22;;;10.60;99.90;;;;;;5015307;28;20026;-81
2022/11/06 06:12:49;;;;;;;9.43;7.18;;;10.40;99.90;;;;;;5014850;28;20113;-80
2022/11/06 06:15:15;;;;;;;11.32;7.45;;;10.60;99.90;;;;;;5006943;28;20034;-81
2022/11/06 06:17:40;;;;;;;12.40;7.72;;;10.40;99.90;;;;;;4995838;28;20022;-81
2022/11/06 06:20:07;;;;;;;10.57;7.65;;;10.40;99.90;;;;;;4995705;28;20022;-81
2022/11/06 06:22:32;;;;;;;10.48;7.72;;;10.40;99.90;;;;;;5014270;28;20026;-80
2022/11/06 06:24:58;;;;;;;14.82;9.68;;;10.30;93.50;;;;;;5014833;28;20156;-80
2022/11/06 06:27:26;;;;;;;14.68;8.90;;;10.30;99.90;;;;;;5014916;28;20022;-81
2022/11/06 06:29:52;;;;;;;15.85;9.38;;;10.30;99.90;;;;;;5015145;28;20018;-80
2022/11/06 06:32:18;;;;;;;16.42;9.73;;;10.30;99.90;;;;;;5014810;28;20033;-80
2022/11/06 06:34:44;;;;;;;15.30;9.48;;;10.20;99.90;;;;;;5014436;28;20021;-80
2022/11/06 06:37:09;;;;;;;15.30;8.77;;;10.20;99.90;;;;;;5014636;28;20018;-80
2022/11/06 06:39:35;;;;;;;15.75;8.23;;;10.20;99.90;;;;;;5014714;28;20025;-80
2022/11/06 06:42:00;;;;;;;14.43;7.07;;;10.20;99.90;;;;;;5012806;28;20037;-80
2022/11/06 06:44:26;;;;;;;12.32;7.90;;;10.20;99.90;;;;;;5014523;28;20032;-80
2022/11/06 06:46:52;;;;;;;21.02;9.18;;;10.20;99.90;;;;;;5014671;28;20024;-80
2022/11/06 06:49:17;;;;;;;17.40;8.93;;;10.40;99.90;;;;;;4999262;28;20387;-80
2022/11/06 06:51:43;;;;;;;11.98;7.50;;;10.40;99.90;;;;;;4995038;28;20104;-80
2022/11/06 06:54:09;;;;;;;14.00;8.20;;;10.20;99.90;;;;;;5006138;28;20014;-80
2022/11/06 06:56:35;;;;;;;13.02;7.05;;;10.30;99.90;;;;;;4997513;28;20052;-80
2022/11/06 06:59:00;;;;;;;12.20;7.25;;;10.20;99.90;;;;;;4997264;28;20026;-80
2022/11/06 07:01:26;;;;;;;11.90;7.45;;;10.30;99.90;;;;;;5003548;28;20049;-80
2022/11/06 07:03:51;;;;;;;12.18;7.32;;;10.30;99.90;;;;;;5010348;28;20029;-80
2022/11/06 07:06:18;;;;;;;16.33;8.82;;;10.30;99.90;;;;;;5007449;28;20025;-80
2022/11/06 07:08:44;;;;;;;15.63;8.45;;;10.30;99.90;;;;;;5000332;28;20018;-80
2022/11/06 07:11:10;;;;;;;13.20;7.78;;;10.30;99.90;;;;;;5002925;28;20049;-80
2022/11/06 07:13:36;;;;;;;15.05;7.80;;;10.30;99.90;;;;;;4998645;28;20141;-80
2022/11/06 07:16:06;;;;;;;9.38;6.85;;;10.20;74.40;;;;;;5003037;28;20432;-80
2022/11/06 07:18:33;;;;;;;15.18;7.68;;;10.30;1.00;;;;;;5003842;28;20064;-80
2022/11/06 07:20:58;;;;;;;17.25;7.88;;;10.40;1.00;;;;;;5005330;28;20037;-80
2022/11/06 07:23:24;;;;;;;11.77;7.30;;;10.40;1.00;;;;;;5002794;28;20030;-80
2022/11/06 07:25:53;;;;;;;10.15;7.65;;;10.40;1.00;;;;;;5001320;28;20388;-80
2022/11/06 07:28:19;;;;;;;13.45;7.22;;;10.40;1.00;;;;;;5007201;28;20570;-80
2022/11/06 07:30:45;;;;;;;10.68;5.65;;;10.50;1.00;;;;;;4998841;28;20615;-79
2022/11/06 07:33:10;;;;;;;12.50;6.88;;;10.40;1.00;;;;;;5005859;28;20515;-79
2022/11/06 07:35:36;;;;;;;8.57;5.88;;;10.40;1.00;;;;;;5005628;28;20352;-80
2022/11/06 07:38:03;;;;;;;8.82;6.13;;;10.40;1.00;;;;;;5000758;28;20397;-79
2022/11/06 07:40:29;;;;;;;13.00;6.35;;;10.40;1.00;;;;;;5004026;28;20020;-80
2022/11/06 07:42:55;;;;;;;12.32;6.10;;;10.50;1.00;;;;;;5003973;28;20029;-80
2022/11/06 07:45:20;;;;;;;12.25;6.05;;;10.50;1.00;;;;;;5005157;28;20030;-79
2022/11/06 07:47:46;;;;;;;9.57;5.72;;;10.40;1.00;;;;;;5000236;28;20053;-79
2022/11/06 07:50:11;;;;;;;9.25;5.13;;;10.60;1.00;;;;;;5000531;28;20089;-79
2022/11/06 07:52:37;;;;;;;11.65;5.35;;;10.50;1.00;;;;;;4992173;28;20473;-79
2022/11/06 07:55:03;;;;;;;9.68;5.18;;;10.40;99.90;;;;;;4994005;28;20369;-79
2022/11/06 07:57:28;;;;;;;9.68;5.00;;;10.40;1.00;;;;;;4992980;28;20078;-79
2022/11/06 07:59:54;;;;;;;9.13;4.75;;;10.40;99.90;;;;;;4991849;28;20388;-79
2022/11/06 08:02:19;;;;;;;8.95;5.53;;;10.40;1.00;;;;;;4991447;28;20030;-79
2022/11/06 08:04:45;;;;;;;12.25;5.40;;;10.40;99.90;;;;;;5009329;28;20066;-79
2022/11/06 08:07:11;;;;;;;8.73;4.47;;;10.40;99.90;;;;;;4993114;28;20022;-79
2022/11/06 08:09:36;;;;;;;12.07;4.88;;;10.40;99.90;;;;;;5000426;28;20032;-81
2022/11/06 08:12:02;;;;;;;10.15;5.28;;;10.40;99.90;;;;;;5003021;28;20056;-78
2022/11/06 08:14:27;;;;;;;9.38;5.07;;;10.50;99.90;;;;;;5007284;28;20080;-78
2022/11/06 08:16:54;;;;;;;6.65;4.03;;;10.50;99.90;;;;;;5010485;28;20025;-78
2022/11/06 08:19:20;;;;;;;9.35;4.70;;;10.60;99.90;;;;;;5007948;28;20019;-78
2022/11/06 08:21:45;;;;;;;11.00;4.90;;;10.70;99.90;;;;;;5013931;28;20087;-78
2022/11/06 08:24:11;;;;;;;8.27;4.57;;;10.70;99.90;;;;;;5013723;28;20065;-78
2022/11/06 08:26:36;;;;;;;9.90;4.88;;;10.70;99.90;;;;;;5007054;28;20080;-78
2022/11/06 08:29:02;;;;;;;8.35;4.68;;;10.70;99.90;;;;;;5005655;28;20112;-78
2022/11/06 08:31:28;;;;;;;6.75;4.35;;;10.80;99.90;;;;;;5010103;28;20022;-78
2022/11/06 08:33:54;;;;;;;9.07;4.15;;;10.80;99.90;;;;;;5005147;28;20055;-78
2022/11/06 08:36:19;;;;;;;9.50;4.57;;;10.80;99.90;;;;;;5004789;28;20022;-78
2022/11/06 08:38:48;;;;;;;8.57;3.83;;;10.80;99.90;;;;;;5007857;28;20053;-78
2022/11/06 08:41:14;;;;;;;9.10;4.05;;;10.90;99.90;;;;;;5008351;28;20100;-78
2022/11/06 08:43:40;;;;;;;8.07;3.88;;;10.90;99.90;;;;;;5009484;28;20401;-78
2022/11/06 08:46:07;;;;;;;8.52;4.57;;;10.80;99.90;;;;;;5007218;28;20113;-79
2022/11/06 08:48:33;;;;;;;4.72;2.92;;;10.80;99.90;;;;;;5005093;28;20018;-78
2022/11/06 08:50:59;;;;;;;10.80;3.95;;;10.80;99.90;;;;;;5010710;28;20022;-78
2022/11/06 08:53:24;;;;;;;5.85;3.55;;;10.80;99.90;;;;;;5008065;28;20530;-78
2022/11/06 08:55:50;;;;;;;4.97;3.35;;;10.60;99.90;;;;;;5013305;28;20018;-78
2022/11/06 08:58:16;;;;;;;9.88;3.90;;;10.50;99.90;;;;;;5002318;28;20032;-78
2022/11/06 09:00:42;;;;;;;8.68;3.80;;;10.50;99.90;;;;;;5005857;28;20080;-78
2022/11/06 09:03:13;;;;;;;7.00;3.72;;;10.50;99.90;;;;;;5012687;28;20030;-78
2022/11/06 09:05:41;;;;;;;6.43;3.67;;;10.50;99.90;;;;;;5014536;28;20103;-78
2022/11/06 09:08:07;;;;;;;6.35;3.15;;;10.50;99.90;;;;;;5003811;28;20460;-79
2022/11/06 09:10:33;;;;;;;7.35;3.28;;;10.40;99.90;;;;;;5001499;28;20030;-79
2022/11/06 09:12:59;;;;;;;10.00;4.75;;;10.40;99.90;;;;;;5013314;28;20104;-79
2022/11/06 09:15:25;;;;;;;10.05;3.28;;;10.40;99.90;;;;;;4996911;28;20100;-78
2022/11/06 09:17:52;;;;;;;11.00;3.63;;;10.50;99.90;;;;;;4996436;28;20481;-79
2022/11/06 09:20:19;;;;;;;8.25;3.30;;;10.40;99.90;;;;;;5000666;28;20022;-79
2022/11/06 09:22:45;;;;;;;7.38;3.60;;;10.30;99.90;;;;;;4996282;28;20026;-79
2022/11/06 09:25:11;;;;;;;8.55;3.58;;;10.20;99.90;;;;;;5009200;28;20116;-79
2022/11/06 09:27:55;;;;;;;6.75;3.67;;;10.40;99.90;;;;;;4997753;28;20104;-79
2022/11/06 09:30:22;;;;;;;8.07;3.65;;;10.40;99.90;;;;;;4996525;28;20035;-79
2022/11/06 09:32:53;;;;;;;8.38;3.40;;;10.30;99.90;;;;;;5002636;28;20049;-79
2022/11/06 09:35:21;;;;;;;7.28;3.50;;;10.30;99.90;;;;;;5003699;28;20062;-79
2022/11/06 09:37:47;;;;;;;10.80;3.13;;;10.40;99.90;;;;;;5003353;28;20013;-79
2022/11/06 09:40:35;;;;;;;6.95;3.47;;;10.40;99.90;;;;;;4993412;28;20022;-79
2022/11/06 09:43:06;;;;;;;5.57;2.60;;;10.40;99.90;;;;;;5001237;28;20020;-79
2022/11/06 09:45:38;;;;;;;5.25;2.65;;;10.40;99.90;;;;;;5000313;28;20022;-79
2022/11/06 09:48:09;;;;;;;7.28;3.75;;;10.30;99.90;;;;;;5000804;28;20084;-78
2022/11/06 09:50:43;;;;;;;10.25;3.72;;;10.40;99.90;;;;;;5006259;28;20037;-79
2022/11/06 09:53:15;;;;;;;6.35;3.50;;;10.40;99.90;;;;;;5001058;28;20038;-79
2022/11/06 09:55:42;;;;;;;5.82;3.10;;;10.40;99.90;;;;;;5003317;28;20507;-78
2022/11/06 09:58:25;;;;;;;9.75;3.00;;;10.40;99.90;;;;;;5000812;28;20514;-79
2022/11/06 10:00:53;;;;;;;6.13;3.05;;;10.30;99.90;;;;;;5013009;28;20029;-79
2022/11/06 10:03:23;;;;;;;8.48;3.60;;;10.20;99.90;;;;;;5012421;28;20508;-79
2022/11/06 10:05:51;;;;;;;;;;;10.30;1.00;;;;;;5009253;28;20025;-79
2022/11/06 10:08:19;;;;;;;9.00;3.40;;;10.40;1.00;;;;;;5007969;28;20348;-79
2022/11/06 10:11:05;;;;;;;9.32;4.10;;;10.30;1.00;;;;;;5008371;28;20040;-79
2022/11/06 10:13:56;;;;;;;6.32;3.13;;;10.20;1.00;;;;;;5001241;28;20568;-79
2022/11/06 10:16:40;;;;;;;7.90;3.65;;;10.40;1.00;;;;;;5002674;28;20119;-79
2022/11/06 10:19:44;;;;;;;6.88;3.42;;;10.40;1.00;;;;;;5005693;28;20034;-79
2022/11/06 10:22:17;;;;;;;7.93;3.03;;;10.40;1.00;;;;;;5002389;28;20029;-80
2022/11/06 10:24:59;;;;;;;5.85;3.10;;;10.40;1.00;;;;;;5006249;28;20041;-79
2022/11/06 10:27:34;;;;;;;6.38;2.80;;;10.50;1.00;;;;;;5004079;28;20113;-80
2022/11/06 10:30:17;;;;;;;6.22;3.25;;;10.60;1.00;;;;;;4999508;28;20038;-80
2022/11/06 10:33:06;;;;;;;5.70;2.80;;;10.60;1.00;;;;;;5006327;28;20042;-80
2022/11/06 10:35:38;;;;;;;6.45;2.70;;;10.80;1.00;;;;;;5001765;28;20022;-80
2022/11/06 10:38:17;;;;;;;8.35;2.83;;;10.90;5.80;;;;;;4997087;28;20026;-80
2022/11/06 10:40:47;;;;;;;8.02;3.20;;;10.90;7.00;;;;;;4995651;28;20030;-79
2022/11/06 10:43:25;;;;;;;5.40;2.60;;;11.00;2.20;;;;;;5016575;28;20038;-80
2022/11/06 10:45:59;;;;;;;9.65;3.15;;;11.10;4.70;;;;;;5016931;28;20365;-80
2022/11/06 10:48:28;;;;;;;4.35;2.63;;;11.10;5.00;;;;;;4999539;28;20068;-79
2022/11/06 10:51:20;;;;;;;6.28;2.67;;;11.20;8.00;;;;;;4995795;28;20100;-79
2022/11/06 10:54:17;;;;;;;6.38;2.90;;;11.20;6.90;;;;;;5001668;28;20038;-79
2022/11/06 10:56:52;;;;;;;4.63;2.50;;;11.30;13.10;;;;;;5009692;28;20084;-80
2022/11/06 10:59:18;;;;;;;6.28;2.75;;;11.30;1.00;;;;;;5008884;28;20038;-79
2022/11/06 11:01:43;;;;;;;7.35;2.95;;;11.20;5.20;;;;;;5002742;28;20068;-80
2022/11/06 11:04:09;;;;;;;5.70;2.85;;;11.40;15.60;;;;;;4998242;28;20030;-80
2022/11/06 11:06:39;;;;;;;5.97;2.75;;;11.50;10.90;;;;;;5002057;28;20032;-80
2022/11/06 11:09:26;;;;;;;6.00;2.78;;;11.60;5.00;;;;;;4998562;28;20018;-80
2022/11/06 11:11:52;;;;;;;6.57;3.00;;;11.50;1.00;;;;;;4998331;28;20046;-79
2022/11/06 11:14:25;;;;;;;10.48;2.97;;;11.60;1.00;;;;;;5000975;28;20064;-80
2022/11/06 11:16:52;;;;;;;6.40;3.00;;;11.70;1.00;;;;;;5004013;28;20033;-81
2022/11/06 11:19:34;;;;;;;6.13;3.33;;;11.60;1.00;;;;;;5008411;28;20098;-81
2022/11/06 11:22:16;;;;;;;8.52;2.80;;;11.80;1.00;;;;;;5013997;28;20431;-81
2022/11/06 11:25:05;;;;;;;8.02;3.03;;;11.90;99.90;;;;;;4999651;28;20085;-80
2022/11/06 11:27:35;;;;;;;8.50;2.97;;;12.00;99.90;;;;;;5001610;28;20026;-81
2022/11/06 11:30:03;;;;;;;5.80;2.80;;;12.00;99.90;;;;;;5012338;28;20116;-81
2022/11/06 11:32:30;;;;;;;7.07;2.80;;;12.10;99.90;;;;;;5003619;28;20041;-81
2022/11/06 11:34:56;;;;;;;5.47;3.05;;;12.10;99.90;;;;;;4997466;28;20461;-81
2022/11/06 11:37:29;;;;;;;5.57;2.80;;;12.10;99.90;;;;;;4997245;28;20054;-81
2022/11/06 11:40:15;;;;;;;5.85;2.80;;;12.10;99.90;;;;;;5000722;28;20045;-81
2022/11/06 11:42:41;;;;;;;4.80;2.35;;;12.30;99.90;;;;;;5002260;28;20038;-81
2022/11/06 11:45:09;;;;;;;4.93;2.33;;;12.30;99.90;;;;;;5005173;28;20022;-81
2022/11/06 11:47:37;;;;;;;6.22;2.70;;;12.40;99.90;;;;;;5003304;28;20381;-80
2022/11/06 11:50:21;;;;;;;7.05;2.85;;;12.50;99.90;;;;;;4998005;28;20088;-83
2022/11/06 11:52:50;;;;;;;6.70;2.55;;;12.40;99.90;;;;;;5010172;28;20113;-82
2022/11/06 11:55:20;;;;;;;5.53;2.70;;;12.30;99.90;;;;;;5004103;28;20023;-81
2022/11/06 11:57:50;;;;;;;5.90;2.72;;;12.40;99.90;;;;;;5007975;28;20768;-81
2022/11/06 12:00:18;;;;;;;6.30;2.70;;;12.30;99.90;;;;;;5019660;28;20022;-81
2022/11/06 12:02:59;;;;;;;6.53;2.97;;;12.40;99.90;;;;;;5019731;28;20106;-81
2022/11/06 12:05:39;;;;;;;5.55;2.75;;;12.30;99.90;;;;;;5003879;28;20105;-81
2022/11/06 12:08:11;;;;;;;8.68;2.83;;;12.40;99.90;;;;;;5000145;28;20026;-82
2022/11/06 12:10:39;;;;;;;5.95;2.47;;;12.30;99.90;;;;;;5001345;28;20031;-81
2022/11/06 12:13:18;;;;;;;6.95;2.80;;;12.10;99.90;;;;;;5002437;28;20039;-82
2022/11/06 12:15:57;;;;;;;4.68;2.05;;;12.10;99.90;;;;;;5001646;28;20434;-82
2022/11/06 12:18:38;;;;;;;5.95;2.10;;;12.20;99.90;;;;;;5005241;28;20037;-83
2022/11/06 12:21:03;;;;;;;7.63;2.55;;;12.30;99.90;;;;;;5014224;28;20022;-83
2022/11/06 12:24:04;;;;;;;3.92;1.90;;;12.50;99.90;;;;;;5003429;28;20031;-83
2022/11/06 12:26:56;;;;;;;5.75;1.90;;;12.30;99.90;;;;;;4987939;28;20047;-82
2022/11/06 12:29:27;;;;;;;3.97;2.08;;;12.20;99.90;;;;;;4999061;28;20026;-83
2022/11/06 12:32:15;;;;;;;5.30;1.90;;;12.20;99.90;;;;;;5006355;28;20029;-80
2022/11/06 12:34:48;;;;;;;4.25;2.08;;;12.10;99.90;;;;;;5014362;28;20026;-79
2022/11/06 12:37:24;;;;;;;3.53;1.90;;;12.20;99.90;;;;;;4999831;28;20030;-82
2022/11/06 12:40:05;;;;;;;5.30;1.95;;;12.00;97.60;;;;;;4998677;28;20026;-82
2022/11/06 12:42:34;;;;;;;6.82;2.55;;;12.00;99.90;;;;;;5009162;28;20018;-82
2022/11/06 12:45:00;;;;;;;3.55;1.63;;;11.90;99.90;;;;;;5011517;28;20026;-82
2022/11/06 12:47:41;;;;;;;6.65;1.98;;;11.80;99.90;;;;;;5000352;28;20022;-81
2022/11/06 12:50:50;;;;;;;3.88;1.50;;;11.70;99.90;;;;;;5002779;28;20034;-81
2022/11/06 12:53:37;;;;;;;4.30;1.80;;;11.70;99.90;;;;;;5003866;28;20049;-82
2022/11/06 12:56:35;;;;;;;7.15;1.90;;;11.60;99.90;;;;;;5007150;28;20029;-82
2022/11/06 12:59:24;;;;;;;5.60;1.90;;;11.60;99.90;;;;;;5015611;28;20036;-81
2022/11/06 13:02:23;;;;;;;4.05;1.90;;;11.50;99.90;;;;;;4998996;28;20117;-82
2022/11/06 13:05:14;;;;;;;8.27;2.80;;;11.60;99.90;;;;;;5006491;28;20046;-82
2022/11/06 13:08:00;;;;;;;9.93;4.10;;;11.50;99.90;;;;;;4982581;28;20038;-82
2022/11/06 13:10:36;;;;;;;5.18;2.03;;;11.50;99.90;;;;;;5001841;28;20750;-81
2022/11/06 13:13:26;;;;;;;4.68;2.00;;;11.40;99.90;;;;;;5018240;28;20048;-80
2022/11/06 13:16:06;;;;;;;5.45;2.25;;;11.30;99.90;;;;;;5016719;28;20029;-82
2022/11/06 13:18:58;;;;;;;;;;;11.20;99.90;;;;;;4997879;28;20030;-81